createdAt,value
2018-04-18T00:00:12.787Z,101294.18
2018-04-18T00:02:38.856Z,101294.67
2018-04-18T00:05:04.916Z,101294.75
2018-04-18T00:07:30.946Z,101297.59
2018-04-18T00:09:56.977Z,101292.37
2018-04-18T00:12:22.992Z,101295.05
2018-04-18T00:14:49.026Z,101301.37
2018-04-18T00:17:15.069Z,101304.97
2018-04-18T00:19:41.099Z,101303.51
2018-04-18T00:22:07.218Z,101299.09
2018-04-18T00:24:33.230Z,101304.96
2018-04-18T00:26:59.255Z,101304.03
2018-04-18T00:29:26.313Z,101310.27
2018-04-18T00:31:52.299Z,101309.53
2018-04-18T00:34:18.317Z,101309.45
2018-04-18T00:36:44.346Z,101308.82
2018-04-18T00:39:10.337Z,101307.19
2018-04-18T00:41:36.322Z,101317.11
2018-04-18T00:44:02.351Z,101312.84
2018-04-18T00:46:28.391Z,101319.10
2018-04-18T00:48:54.403Z,101323.20
2018-04-18T00:51:20.442Z,101321.91
2018-04-18T00:53:46.447Z,101327.16
2018-04-18T00:56:12.451Z,101325.09
2018-04-18T00:58:38.452Z,101322.91
2018-04-18T01:01:04.502Z,101314.94
2018-04-18T01:03:30.529Z,101315.47
2018-04-18T01:05:56.551Z,101306.47
2018-04-18T01:08:22.577Z,101309.59
2018-04-18T01:10:48.600Z,101299.72
2018-04-18T01:13:14.598Z,101292.49
2018-04-18T01:15:40.578Z,101296.05
2018-04-18T01:18:06.708Z,101290.19
2018-04-18T01:20:32.783Z,101295.30
2018-04-18T01:22:58.767Z,101284.67
2018-04-18T01:25:24.802Z,101282.94
2018-04-18T01:27:50.810Z,101287.38
2018-04-18T01:30:16.843Z,101285.34
2018-04-18T01:32:42.835Z,101282.90
2018-04-18T01:35:08.817Z,101285.16
2018-04-18T01:37:34.814Z,101287.80
2018-04-18T01:40:00.820Z,101272.85
2018-04-18T01:42:26.858Z,101297.51
2018-04-18T01:44:52.880Z,101290.67
2018-04-18T01:47:18.907Z,101294.63
2018-04-18T01:49:44.940Z,101291.49
2018-04-18T01:52:10.937Z,101289.36
2018-04-18T01:54:36.959Z,101286.68
2018-04-18T01:57:02.946Z,101296.86
2018-04-18T01:59:28.986Z,101300.76
2018-04-18T02:01:54.976Z,101303.98
2018-04-18T02:04:20.979Z,101309.54
2018-04-18T02:06:46.991Z,101306.06
2018-04-18T02:09:12.979Z,101314.16
2018-04-18T02:11:38.953Z,101316.67
2018-04-18T02:14:04.965Z,101314.59
2018-04-18T02:16:31.019Z,101314.64
2018-04-18T02:18:57.045Z,101313.16
2018-04-18T02:21:23.094Z,101321.25
2018-04-18T02:23:49.094Z,101316.77
2018-04-18T02:26:15.067Z,101323.91
2018-04-18T02:28:41.141Z,101319.29
2018-04-18T02:31:07.169Z,101316.39
2018-04-18T02:33:33.212Z,101327.91
2018-04-18T02:35:59.214Z,101336.08
2018-04-18T02:38:25.228Z,101329.61
2018-04-18T02:40:51.235Z,101329.61
2018-04-18T02:43:17.250Z,101332.34
2018-04-18T02:45:43.252Z,101329.20
2018-04-18T02:48:09.272Z,101330.55
2018-04-18T02:50:35.967Z,101326.03
2018-04-18T02:53:01.957Z,101327.30
2018-04-18T02:55:28.007Z,101326.03
2018-04-18T02:57:54.118Z,101327.28
2018-04-18T03:00:20.153Z,101323.24
2018-04-18T03:02:46.186Z,101329.19
2018-04-18T03:05:12.220Z,101320.53
2018-04-18T03:07:38.202Z,101327.99
2018-04-18T03:10:04.242Z,101332.08
2018-04-18T03:12:30.255Z,101334.27
2018-04-18T03:14:56.261Z,101335.11
2018-04-18T03:17:22.235Z,101332.67
2018-04-18T03:19:48.278Z,101330.52
2018-04-18T03:22:14.264Z,101335.33
2018-04-18T03:24:40.224Z,101336.67
2018-04-18T03:27:06.252Z,101334.20
2018-04-18T03:29:32.262Z,101329.75
2018-04-18T03:31:58.250Z,101333.19
2018-04-18T03:34:24.223Z,101336.64
2018-04-18T03:36:50.210Z,101347.75
2018-04-18T03:39:16.164Z,101346.31
2018-04-18T03:41:42.161Z,101344.18
2018-04-18T03:44:08.127Z,101344.28
2018-04-18T03:46:34.967Z,101348.44
2018-04-18T03:49:02.482Z,101348.75
2018-04-18T03:54:43.028Z,101355.09
2018-04-18T03:57:10.064Z,101348.70
2018-04-18T03:59:36.124Z,101350.77
2018-04-18T04:02:02.182Z,101346.69
2018-04-18T04:04:28.175Z,101345.09
2018-04-18T04:06:54.154Z,101353.93
2018-04-18T04:09:20.206Z,101358.98
2018-04-18T04:11:46.275Z,101360.30
2018-04-18T04:16:44.717Z,101361.03
2018-04-18T04:19:10.829Z,101367.91
2018-04-18T04:21:36.937Z,101367.25
2018-04-18T04:24:02.970Z,101366.94
2018-04-18T04:26:28.993Z,101372.72
2018-04-18T04:28:55.032Z,101374.96
2018-04-18T04:31:21.108Z,101381.63
2018-04-18T04:33:47.097Z,101382.56
2018-04-18T04:36:13.154Z,101383.83
2018-04-18T04:38:39.172Z,101383.98
2018-04-18T04:41:05.233Z,101387.80
2018-04-18T04:43:31.300Z,101389.48
2018-04-18T04:45:57.385Z,101391.12
2018-04-18T04:48:23.477Z,101387.44
2018-04-18T04:50:49.630Z,101388.14
2018-04-18T04:53:15.683Z,101396.55
2018-04-18T04:55:42.213Z,101396.66
2018-04-18T04:58:08.211Z,101396.05
2018-04-18T05:00:34.195Z,101392.64
2018-04-18T05:03:00.193Z,101403.47
2018-04-18T05:05:26.188Z,101406.57
2018-04-18T05:07:54.165Z,101406.23
2018-04-18T05:10:20.512Z,101391.69
2018-04-18T05:12:47.828Z,101415.30
2018-04-18T05:15:13.962Z,101430.02
2018-04-18T05:17:40.005Z,101426.45
2018-04-18T05:20:06.090Z,101432.59
2018-04-18T05:22:32.185Z,101437.09
2018-04-18T05:24:58.142Z,101437.08
2018-04-18T05:27:24.983Z,101444.98
2018-04-18T05:29:50.957Z,101448.78
2018-04-18T05:32:16.986Z,101449.06
2018-04-18T05:34:42.962Z,101444.38
2018-04-18T05:37:09.021Z,101446.61
2018-04-18T05:39:35.012Z,101449.39
2018-04-18T05:42:01.000Z,101453.05
2018-04-18T05:44:26.981Z,101450.40
2018-04-18T05:46:53.049Z,101456.02
2018-04-18T05:49:19.098Z,101466.67
2018-04-18T05:51:45.095Z,101467.27
2018-04-18T05:54:11.093Z,101468.97
2018-04-18T05:56:37.070Z,101469.08
2018-04-18T05:59:03.063Z,101467.49
2018-04-18T06:01:29.089Z,101471.06
2018-04-18T06:03:55.070Z,101474.88
2018-04-18T06:06:21.261Z,101470.45
2018-04-18T06:08:47.235Z,101477.11
2018-04-18T06:11:13.227Z,101476.11
2018-04-18T06:13:39.245Z,101472.55
2018-04-18T06:16:05.210Z,101469.64
2018-04-18T06:18:31.192Z,101475.76
2018-04-18T06:20:57.175Z,101471.50
2018-04-18T06:23:23.173Z,101479.34
2018-04-18T06:25:49.123Z,101473.27
2018-04-18T06:28:15.082Z,101478.05
2018-04-18T06:30:41.054Z,101482.09
2018-04-18T06:33:07.062Z,101490.38
2018-04-18T06:35:33.046Z,101490.41
2018-04-18T06:37:59.041Z,101496.09
2018-04-18T06:40:25.073Z,101494.16
2018-04-18T06:42:51.136Z,101496.68
2018-04-18T06:45:17.128Z,101495.84
2018-04-18T06:47:43.124Z,101492.16
2018-04-18T06:50:09.084Z,101498.86
2018-04-18T06:52:35.083Z,101490.96
2018-04-18T06:55:01.114Z,101499.62
2018-04-18T06:57:27.119Z,101497.45
2018-04-18T06:59:53.129Z,101492.86
2018-04-18T07:02:19.110Z,101496.16
2018-04-18T07:04:45.143Z,101496.27
2018-04-18T07:07:11.122Z,101493.31
2018-04-18T07:09:37.164Z,101496.67
2018-04-18T07:12:03.131Z,101504.53
2018-04-18T07:14:29.149Z,101511.14
2018-04-18T07:16:55.169Z,101509.92
2018-04-18T07:19:21.165Z,101509.20
2018-04-18T07:21:47.218Z,101500.81
2018-04-18T07:24:13.257Z,101508.14
2018-04-18T07:26:39.241Z,101504.33
2018-04-18T07:29:05.242Z,101510.25
2018-04-18T07:31:31.206Z,101508.05
2018-04-18T07:33:57.306Z,101511.66
2018-04-18T07:36:23.300Z,101514.31
2018-04-18T07:38:49.269Z,101519.78
2018-04-18T07:41:15.244Z,101514.53
2018-04-18T07:43:41.279Z,101513.73
2018-04-18T07:46:07.284Z,101521.20
2018-04-18T07:48:33.229Z,101525.04
2018-04-18T07:50:59.274Z,101519.86
2018-04-18T07:53:25.235Z,101525.90
2018-04-18T07:55:51.235Z,101524.03
2018-04-18T07:58:17.227Z,101528.24
2018-04-18T08:00:43.280Z,101528.36
2018-04-18T08:03:09.271Z,101528.36
2018-04-18T08:05:35.282Z,101530.25
2018-04-18T08:08:01.242Z,101532.00
2018-04-18T08:10:27.205Z,101528.81
2018-04-18T08:12:53.160Z,101534.10
2018-04-18T08:15:19.188Z,101531.77
2018-04-18T08:17:45.138Z,101540.50
2018-04-18T08:20:11.126Z,101536.36
2018-04-18T08:22:37.090Z,101539.84
2018-04-18T08:25:03.056Z,101536.90
2018-04-18T08:27:29.050Z,101538.25
2018-04-18T08:29:55.045Z,101538.55
2018-04-18T08:32:21.033Z,101539.55
2018-04-18T08:34:46.996Z,101531.81
2018-04-18T08:37:12.986Z,101532.88
2018-04-18T08:39:38.941Z,101528.44
2018-04-18T08:42:04.930Z,101533.20
2018-04-18T08:44:30.895Z,101537.95
2018-04-18T08:46:56.892Z,101539.64
2018-04-18T08:49:22.848Z,101537.52
2018-04-18T08:51:48.828Z,101534.95
2018-04-18T08:54:14.815Z,101532.84
2018-04-18T08:56:40.769Z,101540.50
2018-04-18T08:59:06.724Z,101534.10
2018-04-18T09:01:32.716Z,101540.09
2018-04-18T09:03:58.659Z,101534.98
2018-04-18T09:06:24.732Z,101542.64
2018-04-18T09:08:50.746Z,101536.67
2018-04-18T09:11:16.730Z,101535.44
2018-04-18T09:13:42.697Z,101538.83
2018-04-18T09:16:08.739Z,101537.95
2018-04-18T09:18:34.777Z,101533.30
2018-04-18T09:21:00.761Z,101531.55
2018-04-18T09:23:27.656Z,101534.98
2018-04-18T09:25:53.608Z,101538.39
2018-04-18T09:28:19.583Z,101534.56
2018-04-18T09:30:45.585Z,101536.27
2018-04-18T09:33:11.625Z,101540.95
2018-04-18T09:35:37.590Z,101538.80
2018-04-18T09:38:03.567Z,101531.57
2018-04-18T09:40:29.515Z,101537.11
2018-04-18T09:42:55.479Z,101542.25
2018-04-18T09:45:21.449Z,101537.97
2018-04-18T09:47:47.703Z,101537.52
2018-04-18T09:50:13.716Z,101538.39
2018-04-18T09:52:39.703Z,101537.52
2018-04-18T09:55:05.717Z,101535.84
2018-04-18T09:57:31.744Z,101537.97
2018-04-18T09:59:57.716Z,101537.11
2018-04-18T10:02:23.810Z,101537.97
2018-04-18T10:04:49.787Z,101542.65
2018-04-18T10:07:15.818Z,101542.64
2018-04-18T10:09:41.767Z,101548.18
2018-04-18T10:12:07.722Z,101545.59
2018-04-18T10:14:33.703Z,101542.61
2018-04-18T10:16:59.674Z,101534.52
2018-04-18T10:19:25.657Z,101530.30
2018-04-18T10:21:51.623Z,101529.00
2018-04-18T10:24:17.616Z,101532.00
2018-04-18T10:26:43.568Z,101535.41
2018-04-18T10:29:09.589Z,101533.70
2018-04-18T10:31:35.561Z,101531.53
2018-04-18T10:34:01.564Z,101529.00
2018-04-18T10:36:27.529Z,101528.13
2018-04-18T10:38:53.527Z,101525.14
2018-04-18T10:41:19.501Z,101531.53
2018-04-18T10:43:45.475Z,101523.05
2018-04-18T10:46:11.459Z,101519.62
2018-04-18T10:48:37.492Z,101521.72
2018-04-18T10:51:03.552Z,101514.45
2018-04-18T10:53:29.568Z,101518.71
2018-04-18T10:55:55.574Z,101512.73
2018-04-18T10:58:21.555Z,101516.59
2018-04-18T11:00:47.553Z,101512.79
2018-04-18T11:03:13.517Z,101511.11
2018-04-18T11:05:39.528Z,101507.27
2018-04-18T11:08:05.978Z,101508.92
2018-04-18T11:10:31.955Z,101506.83
2018-04-18T11:12:57.961Z,101506.41
2018-04-18T11:15:24.050Z,101505.52
2018-04-18T11:17:50.013Z,101499.52
2018-04-18T11:20:15.986Z,101495.75
2018-04-18T11:22:41.932Z,101497.03
2018-04-18T11:25:07.934Z,101494.91
2018-04-18T11:27:33.905Z,101490.67
2018-04-18T11:29:59.920Z,101492.38
2018-04-18T11:32:25.894Z,101490.67
2018-04-18T11:34:51.857Z,101486.83
2018-04-18T11:37:17.795Z,101482.99
2018-04-18T11:39:43.858Z,101485.98
2018-04-18T11:42:09.810Z,101449.34
2018-04-18T11:44:35.799Z,101482.16
2018-04-18T11:47:01.781Z,101486.39
2018-04-18T11:49:27.800Z,101482.94
2018-04-18T11:51:53.796Z,101486.42
2018-04-18T11:54:19.795Z,101483.44
2018-04-18T11:56:46.076Z,101485.98
2018-04-18T11:59:12.046Z,101490.66
2018-04-18T12:01:38.040Z,101480.02
2018-04-18T12:04:04.069Z,101487.26
2018-04-18T12:06:30.085Z,101489.38
2018-04-18T12:08:56.090Z,101483.84
2018-04-18T12:11:22.078Z,101482.59
2018-04-18T12:13:48.127Z,101484.27
2018-04-18T12:16:14.262Z,101481.23
2018-04-18T12:18:40.259Z,101478.30
2018-04-18T12:21:06.297Z,101475.34
2018-04-18T12:23:32.282Z,101479.16
2018-04-18T12:25:58.280Z,101477.47
2018-04-18T12:28:24.228Z,101477.04
2018-04-18T12:30:50.234Z,101477.04
2018-04-18T12:33:16.294Z,101473.56
2018-04-18T12:35:42.300Z,101479.94
2018-04-18T12:38:08.310Z,101473.58
2018-04-18T12:40:34.314Z,101466.34
2018-04-18T12:43:00.336Z,101469.38
2018-04-18T12:45:26.320Z,101468.09
2018-04-18T12:47:52.377Z,101472.36
2018-04-18T12:50:18.350Z,101473.22
2018-04-18T12:52:44.324Z,101472.78
2018-04-18T12:55:10.435Z,101468.53
2018-04-18T12:57:36.488Z,101468.95
2018-04-18T13:00:02.509Z,101462.12
2018-04-18T13:02:28.521Z,101458.73
2018-04-18T13:04:54.491Z,101454.00
2018-04-18T13:07:21.903Z,101453.16
2018-04-18T13:09:48.021Z,101455.31
2018-04-18T13:12:14.062Z,101457.44
2018-04-18T13:14:40.069Z,101455.27
2018-04-18T13:17:06.050Z,101450.20
2018-04-18T13:19:32.095Z,101451.07
2018-04-18T13:21:58.093Z,101449.79
2018-04-18T13:24:24.135Z,101447.23
2018-04-18T13:26:50.109Z,101443.41
2018-04-18T13:29:16.103Z,101444.69
2018-04-18T13:31:42.101Z,101450.22
2018-04-18T13:34:08.075Z,101443.83
2018-04-18T13:36:34.038Z,101445.12
2018-04-18T13:38:59.995Z,101445.52
2018-04-18T13:41:25.973Z,101440.84
2018-04-18T13:43:51.918Z,101437.44
2018-04-18T13:46:17.890Z,101433.19
2018-04-18T13:48:43.865Z,101437.00
2018-04-18T13:51:09.837Z,101439.16
2018-04-18T13:53:35.786Z,101442.12
2018-04-18T13:56:01.735Z,101439.98
2018-04-18T13:58:27.672Z,101444.69
2018-04-18T14:00:53.630Z,101445.53
2018-04-18T14:03:19.592Z,101430.17
2018-04-18T14:05:45.549Z,101436.95
2018-04-18T14:08:11.565Z,101437.45
2018-04-18T14:10:37.553Z,101434.04
2018-04-18T14:13:03.513Z,101434.39
2018-04-18T14:15:29.523Z,101432.73
2018-04-18T14:17:55.489Z,101435.30
2018-04-18T14:20:21.471Z,101433.17
2018-04-18T14:22:47.432Z,101438.26
2018-04-18T14:25:13.395Z,101433.99
2018-04-18T14:27:39.356Z,101435.72
2018-04-18T14:30:05.301Z,101431.88
2018-04-18T14:32:31.266Z,101425.95
2018-04-18T14:34:57.245Z,101423.37
2018-04-18T14:37:23.224Z,101428.08
2018-04-18T14:39:49.168Z,101425.08
2018-04-18T14:42:15.109Z,101425.50
2018-04-18T14:44:41.085Z,101427.66
2018-04-18T14:47:07.048Z,101429.73
2018-04-18T14:49:33.060Z,101416.09
2018-04-18T14:51:59.080Z,101418.25
2018-04-18T14:54:25.105Z,101409.33
2018-04-18T14:56:51.100Z,101409.33
2018-04-18T14:59:17.083Z,101415.72
2018-04-18T15:01:43.137Z,101411.02
2018-04-18T15:04:09.141Z,101407.58
2018-04-18T15:06:35.143Z,101408.77
2018-04-18T15:09:01.196Z,101406.97
2018-04-18T15:11:27.298Z,101406.63
2018-04-18T15:16:25.676Z,101406.19
2018-04-18T15:18:51.855Z,101408.75
2018-04-18T15:21:19.527Z,101406.63
2018-04-18T15:23:45.594Z,101409.64
2018-04-18T15:26:12.287Z,101407.05
2018-04-18T15:28:43.364Z,101404.54
2018-04-18T15:31:09.412Z,101404.48
2018-04-18T15:33:36.361Z,101408.31
2018-04-18T15:36:02.454Z,101403.55
2018-04-18T15:38:28.538Z,101401.44
2018-04-18T15:40:54.574Z,101398.05
2018-04-18T15:43:20.601Z,101399.36
2018-04-18T15:45:46.658Z,101398.08
2018-04-18T15:48:12.783Z,101390.94
2018-04-18T15:50:38.845Z,101403.61
2018-04-18T15:53:04.981Z,101401.03
2018-04-18T15:55:32.272Z,101396.40
2018-04-18T15:58:01.453Z,101394.63
2018-04-18T16:00:28.112Z,101392.38
2018-04-18T16:12:22.632Z,101397.13
2018-04-18T16:14:48.660Z,101389.05
2018-04-18T16:17:18.578Z,101389.91
2018-04-18T16:19:45.286Z,101387.79
2018-04-18T16:25:12.593Z,101384.53
2018-04-18T16:35:17.463Z,101376.84
2018-04-18T16:37:47.982Z,101378.16
2018-04-18T16:40:16.735Z,101378.17
2018-04-18T16:42:42.726Z,101376.47
2018-04-18T16:47:57.830Z,101370.13
2018-04-18T16:50:23.879Z,101375.21
2018-04-18T16:55:28.898Z,101371.72
2018-04-18T16:57:57.896Z,101372.55
2018-04-18T17:00:23.913Z,101372.95
2018-04-18T17:02:49.884Z,101367.38
2018-04-18T17:05:15.847Z,101363.06
2018-04-18T17:07:41.820Z,101361.29
2018-04-18T17:10:08.803Z,101361.79
2018-04-18T17:12:34.813Z,101357.86
2018-04-18T17:15:00.794Z,101357.98
2018-04-18T17:17:27.072Z,101363.94
2018-04-18T17:19:53.075Z,101361.78
2018-04-18T17:22:19.077Z,101358.34
2018-04-18T17:24:46.439Z,101360.03
2018-04-18T17:27:12.423Z,101355.34
2018-04-18T17:29:38.419Z,101356.63
2018-04-18T17:32:04.447Z,101356.20
2018-04-18T17:34:30.425Z,101358.02
2018-04-18T17:36:56.400Z,101358.06
2018-04-18T17:39:22.425Z,101360.22
2018-04-18T17:41:48.397Z,101357.62
2018-04-18T17:44:14.590Z,101360.20
2018-04-18T17:46:40.661Z,101364.81
2018-04-18T17:49:06.666Z,101370.48
2018-04-18T17:51:32.877Z,101365.34
2018-04-18T17:53:59.923Z,101361.94
2018-04-18T17:56:25.884Z,101366.20
2018-04-18T17:58:52.292Z,101369.20
2018-04-18T18:41:27.348Z,101378.67
2018-04-18T18:43:53.321Z,101383.77
2018-04-18T18:46:19.265Z,101390.59
2018-04-18T18:48:45.205Z,101385.08
2018-04-18T18:51:11.156Z,101393.59
2018-04-18T18:53:37.101Z,101392.73
2018-04-18T18:56:03.092Z,101401.68
2018-04-18T18:58:29.053Z,101402.96
2018-04-18T19:00:55.019Z,101405.49
2018-04-18T19:03:21.051Z,101396.94
2018-04-18T19:05:47.040Z,101402.86
2018-04-18T19:08:13.175Z,101405.82
2018-04-18T19:10:39.156Z,101405.34
2018-04-18T19:13:05.172Z,101409.64
2018-04-18T19:15:31.176Z,101410.14
2018-04-18T19:17:57.149Z,101416.95
2018-04-18T19:20:23.098Z,101415.27
2018-04-18T19:22:49.106Z,101419.92
2018-04-18T19:25:15.042Z,101420.33
2018-04-18T19:27:41.013Z,101420.34
2018-04-18T19:30:06.986Z,101413.94
2018-04-18T19:32:32.933Z,101422.37
2018-04-18T19:34:58.872Z,101413.45
2018-04-18T19:37:25.163Z,101417.68
2018-04-18T19:39:51.148Z,101414.77
2018-04-18T19:42:17.129Z,101419.40
2018-04-18T19:44:43.085Z,101419.42
2018-04-18T19:47:09.285Z,101418.12
2018-04-18T19:49:35.541Z,101421.52
2018-04-18T19:52:01.520Z,101421.89
2018-04-18T19:54:29.570Z,101422.38
2018-04-18T19:56:55.537Z,101416.79
2018-04-18T19:59:21.527Z,101422.64
2018-04-18T20:01:47.477Z,101421.67
2018-04-18T20:04:13.565Z,101417.17
2018-04-18T20:06:39.510Z,101415.97
2018-04-18T20:09:05.478Z,101416.00
2018-04-18T20:11:31.418Z,101413.80
2018-04-18T20:13:57.367Z,101410.41
2018-04-18T20:16:23.357Z,101408.74
2018-04-18T20:18:49.329Z,101412.38
2018-04-18T20:21:15.282Z,101414.52
2018-04-18T20:23:41.231Z,101408.68
2018-04-18T20:26:07.194Z,101416.81
2018-04-18T20:28:33.285Z,101418.51
2018-04-18T20:30:59.252Z,101413.77
2018-04-18T20:33:25.217Z,101418.06
2018-04-18T20:35:51.262Z,101420.94
2018-04-18T20:38:17.206Z,101420.75
2018-04-18T20:40:43.153Z,101424.61
2018-04-18T20:45:40.850Z,101428.46
2018-04-18T20:48:06.787Z,101430.48
2018-04-18T20:50:32.745Z,101428.03
2018-04-18T20:52:58.692Z,101425.62
2018-04-18T20:55:24.662Z,101421.02
2018-04-18T20:57:50.600Z,101424.25
2018-04-18T21:00:16.562Z,101421.70
2018-04-18T21:02:42.514Z,101427.92
2018-04-18T21:05:08.484Z,101425.33
2018-04-18T21:07:34.432Z,101425.59
2018-04-18T21:10:00.496Z,101418.69
2018-04-18T21:12:26.467Z,101422.52
2018-04-18T21:14:52.416Z,101420.94
2018-04-18T21:17:18.365Z,101421.86
2018-04-18T21:19:44.318Z,101417.64
2018-04-18T21:22:10.273Z,101420.52
2018-04-18T21:24:36.238Z,101422.58
2018-04-18T21:27:02.166Z,101416.50
2018-04-18T21:29:28.177Z,101423.81
2018-04-18T21:31:54.122Z,101435.36
2018-04-18T21:34:20.083Z,101440.13
2018-04-18T21:36:46.039Z,101437.73
2018-04-18T21:39:12.005Z,101434.42
2018-04-18T21:41:37.939Z,101434.13
2018-04-18T21:44:03.878Z,101432.16
2018-04-18T21:46:29.919Z,101435.17
2018-04-18T21:48:55.868Z,101438.14
2018-04-18T21:51:21.839Z,101440.56
2018-04-18T21:53:47.766Z,101442.22
2018-04-18T21:56:13.717Z,101440.15
2018-04-18T21:58:39.663Z,101446.32
2018-04-18T22:01:05.640Z,101442.35
2018-04-18T22:03:31.563Z,101446.36
2018-04-18T22:05:57.507Z,101442.08
2018-04-18T22:08:23.458Z,101446.74
2018-04-18T22:10:49.409Z,101450.28
2018-04-18T22:13:15.368Z,101454.65
2018-04-18T22:15:41.324Z,101450.72
2018-04-18T22:18:07.272Z,101451.90
2018-04-18T22:20:33.238Z,101449.92
2018-04-18T22:22:59.216Z,101450.39
2018-04-18T22:25:25.161Z,101451.03
2018-04-18T22:27:51.135Z,101452.23
2018-04-18T22:30:17.093Z,101455.91
2018-04-18T22:32:43.055Z,101459.78
2018-04-18T22:35:08.980Z,101463.56
2018-04-18T22:37:34.942Z,101457.31
2018-04-18T22:40:00.887Z,101461.52
2018-04-18T22:42:26.837Z,101459.02
2018-04-18T22:44:52.784Z,101457.93
2018-04-18T22:47:18.744Z,101456.09
2018-04-18T22:49:44.701Z,101456.55
2018-04-18T22:52:10.641Z,101460.13
2018-04-18T22:54:36.612Z,101461.78
2018-04-18T22:57:02.563Z,101460.08
2018-04-18T22:59:28.515Z,101465.69
2018-04-18T23:01:54.458Z,101460.12
2018-04-18T23:04:20.441Z,101459.80
2018-04-18T23:06:46.393Z,101461.38
2018-04-18T23:09:12.338Z,101460.35
2018-04-18T23:11:38.264Z,101453.09
2018-04-18T23:14:04.204Z,101455.65
2018-04-18T23:16:30.268Z,101463.87
2018-04-18T23:18:56.239Z,101459.12
2018-04-18T23:21:22.171Z,101458.67
2018-04-18T23:23:48.126Z,101459.41
2018-04-18T23:26:14.060Z,101464.25
2018-04-18T23:28:40.021Z,101464.14
2018-04-18T23:31:05.990Z,101462.36
2018-04-18T23:33:31.949Z,101464.41
2018-04-18T23:35:57.898Z,101459.63
2018-04-18T23:38:23.818Z,101458.15
2018-04-18T23:40:49.766Z,101461.69
2018-04-18T23:43:15.711Z,101462.09
2018-04-18T23:45:41.663Z,101459.67
2018-04-18T23:48:07.605Z,101449.95
2018-04-18T23:50:33.554Z,101445.30
2018-04-18T23:52:59.502Z,101450.73
2018-04-18T23:55:25.463Z,101445.86
2018-04-18T23:57:51.402Z,101445.08
